Etusivu
METAR-TAF:

METAR-TAF

Lentoasemat :

Svolvær, Norja

Svolværin lentoasema

Leveyspiiri: 68-15N, Pituuspiiri: 014-40E, korkeus merenpinnasta: 0 m

Tämänhetkinen sää

Tämä raportti tehtiin 1 tunti ja 38 minuuttia sitten, kello 12.50 UTC
Tuuli 7 kn pohjoisesta
Lämpötila 21°C
Kosteus 56%
Ilmanpaine 1004 hPa
Näkyvyys 10 km tai enemmän
ei pilviä alle 1500 m:ssä eikä cumulonimbus-pilviä

METAR: ENSH 271250Z 01007KT CAVOK 21/12 Q1004

Aika: 16:28 (14:28 UTC)

Sääennuste

Tämä raportti tehtiin 3 tuntia ja 28 minuuttia sitten, kello 11.00 UTC
Ennuste voimassa 27. päivästä klo 12 UTC - 27. päivään klo 20 UTC
Tuuli 12 kn pohjoisesta/koillisesta
Näkyvyys 10 km tai enemmän
ei pilviä alle 1500 m:ssä eikä cumulonimbus-pilviä
Ajoittain
27. päivästä klo 12 UTC - 27. päivään klo 16 UTC
Tuuli 8 kn idästä

TAF: ENSH 271100Z 2712/2720 02012KT CAVOK TEMPO 2712/2716 08008KT

Säähavainnot ja -ennusteet yli 4000 lentoasemalta (METAR- ja TAF-raportit).

Käytössä olevat sääasemat on merkitty karttaan keltaisilla ja punaisilla pisteillä.

Aseta hiiri pisteen päälle nähdäksesi sääaseman nimen.

Klikkaa sitten nähdäksesi säähavainnot ja -ennusteet.

Kartan vaihtaminen: klikkaa mustalla rastilla varustettuja vihreitä pisteitä, niin voit zoomata sisään; viivalla varustettua vihreää pistettä, niin voit zoomata ulos tai vihreitä nuolia, niin pääset viereisille kartoille.


METAR-TAF: